createdAt,value
2019-03-23T00:04:33.485Z,27.40
2019-03-23T00:10:06.969Z,21.90
2019-03-23T00:15:36.680Z,30.10
2019-03-23T00:21:07.722Z,21.97
2019-03-23T00:26:37.179Z,28.63
2019-03-23T00:32:06.872Z,23.07
2019-03-23T00:37:36.809Z,19.97
2019-03-23T00:43:06.514Z,22.97
2019-03-23T00:48:35.932Z,18.70
2019-03-23T00:54:05.375Z,18.60
2019-03-23T00:59:34.895Z,17.50
2019-03-23T01:05:05.878Z,16.87
2019-03-23T01:10:35.357Z,19.13
2019-03-23T01:16:04.833Z,20.40
2019-03-23T01:21:34.175Z,18.10
2019-03-23T01:27:03.595Z,17.27
2019-03-23T01:32:32.918Z,17.13
2019-03-23T01:38:02.432Z,19.87
2019-03-23T01:43:31.841Z,23.00
2019-03-23T01:49:01.380Z,16.53
2019-03-23T01:54:30.766Z,20.30
2019-03-23T02:00:00.416Z,17.70
2019-03-23T02:05:29.912Z,22.03
2019-03-23T02:11:04.360Z,17.50
2019-03-23T02:16:33.749Z,17.50
2019-03-23T02:22:03.223Z,20.07
2019-03-23T02:27:32.871Z,18.83
2019-03-23T02:33:02.253Z,19.80
2019-03-23T02:38:31.950Z,26.03
2019-03-23T02:44:01.545Z,21.27
2019-03-23T02:49:30.993Z,20.60
2019-03-23T02:55:00.534Z,17.93
2019-03-23T03:00:30.029Z,17.67
2019-03-23T03:05:59.544Z,16.77
2019-03-23T03:11:28.974Z,21.17
2019-03-23T03:16:58.484Z,22.67
2019-03-23T03:22:28.046Z,18.53
2019-03-23T03:27:57.565Z,18.17
2019-03-23T03:33:27.103Z,16.93
2019-03-23T03:39:02.736Z,16.93
2019-03-23T03:44:32.193Z,15.13
2019-03-23T03:50:01.739Z,15.23
2019-03-23T03:55:31.302Z,16.73
2019-03-23T04:01:01.629Z,13.80
2019-03-23T04:06:31.179Z,21.00
2019-03-23T04:12:03.992Z,18.53
2019-03-23T04:17:33.808Z,17.03
2019-03-23T04:23:05.083Z,21.30
2019-03-23T04:28:34.406Z,20.50
2019-03-23T04:34:03.744Z,18.63
2019-03-23T04:39:33.195Z,17.43
2019-03-23T04:45:02.521Z,16.27
2019-03-23T04:50:32.009Z,20.80
2019-03-23T04:56:01.345Z,20.40
2019-03-23T05:01:30.917Z,12.17
2019-03-23T05:07:00.442Z,16.87
2019-03-23T05:12:29.918Z,18.77
2019-03-23T05:17:59.361Z,14.83
2019-03-23T05:23:28.907Z,14.03
2019-03-23T05:28:58.383Z,20.57
2019-03-23T05:34:27.920Z,13.40
2019-03-23T05:39:57.364Z,15.90
2019-03-23T05:45:26.915Z,17.90
2019-03-23T05:50:56.472Z,20.73
2019-03-23T05:56:26.129Z,14.97
2019-03-23T06:01:57.984Z,15.03
2019-03-23T06:07:27.641Z,14.30
2019-03-23T06:12:57.225Z,14.93
2019-03-23T06:18:27.788Z,14.17
2019-03-23T06:23:57.348Z,13.80
2019-03-23T06:29:26.775Z,12.03
2019-03-23T06:34:56.313Z,13.00
2019-03-23T06:40:25.969Z,16.90
2019-03-23T06:45:55.399Z,13.23
2019-03-23T06:51:24.932Z,11.90
2019-03-23T06:56:54.558Z,12.43
2019-03-23T07:02:24.218Z,9.33
2019-03-23T07:07:53.717Z,11.67
2019-03-23T07:13:23.328Z,11.47
2019-03-23T07:18:52.872Z,12.47
2019-03-23T07:24:23.201Z,10.37
2019-03-23T07:29:52.658Z,15.30
2019-03-23T07:35:22.141Z,10.00
2019-03-23T07:40:51.697Z,14.97
2019-03-23T07:46:21.187Z,15.43
2019-03-23T07:51:50.819Z,13.87
2019-03-23T07:57:21.149Z,11.37
2019-03-23T08:02:50.694Z,10.80
2019-03-23T08:08:20.016Z,10.20
2019-03-23T08:13:49.529Z,14.73
2019-03-23T08:19:19.074Z,14.30
2019-03-23T08:24:49.091Z,16.23
2019-03-23T08:30:19.296Z,17.00
2019-03-23T08:35:49.664Z,20.97
2019-03-23T08:41:19.458Z,19.63
2019-03-23T08:46:49.031Z,24.40
2019-03-23T08:52:18.557Z,23.27
2019-03-23T08:57:47.930Z,20.87
2019-03-23T09:03:17.287Z,25.83
2019-03-23T09:08:46.708Z,22.27
2019-03-23T09:14:16.237Z,24.63
2019-03-23T09:19:45.831Z,32.20
2019-03-23T09:25:15.348Z,27.20
2019-03-23T09:30:44.817Z,29.47
2019-03-23T09:36:14.440Z,31.50
2019-03-23T09:41:43.968Z,30.63
2019-03-23T09:47:13.596Z,30.97
2019-03-23T09:52:43.164Z,33.37
2019-03-23T09:58:13.853Z,34.60
2019-03-23T10:03:43.757Z,36.03
2019-03-23T10:09:13.111Z,29.67
2019-03-23T10:14:42.743Z,36.77
2019-03-23T10:20:13.153Z,35.00
2019-03-23T10:25:42.668Z,33.87
2019-03-23T10:31:12.312Z,36.13
2019-03-23T10:36:42.134Z,40.07
2019-03-23T10:42:11.841Z,39.90
2019-03-23T10:47:41.623Z,38.83
2019-03-23T10:53:11.273Z,40.97
2019-03-23T10:58:40.840Z,42.43
2019-03-23T11:04:10.738Z,37.40
2019-03-23T11:09:40.206Z,38.40
2019-03-23T11:15:11.485Z,33.97
2019-03-23T11:20:41.129Z,40.90
2019-03-23T11:26:11.824Z,40.53
2019-03-23T11:31:44.960Z,38.57
2019-03-23T11:37:14.530Z,34.50
2019-03-23T11:42:50.012Z,37.10
2019-03-23T11:48:15.496Z,43.50
2019-03-23T11:53:45.555Z,32.20
2019-03-23T11:59:15.089Z,34.87
2019-03-23T12:04:44.644Z,31.90
2019-03-23T12:10:14.818Z,34.60
2019-03-23T12:15:44.591Z,27.17
2019-03-23T12:21:14.218Z,27.73
2019-03-23T12:26:43.503Z,32.47
2019-03-23T12:32:13.340Z,39.17
2019-03-23T12:37:42.898Z,33.90
2019-03-23T12:43:15.033Z,41.43
2019-03-23T12:48:45.606Z,43.00
2019-03-23T12:54:17.117Z,41.53
2019-03-23T12:59:47.933Z,36.47
2019-03-23T13:05:17.670Z,39.23
2019-03-23T13:10:47.198Z,42.23
2019-03-23T13:16:16.837Z,49.53
2019-03-23T13:21:46.365Z,47.03
2019-03-23T13:27:15.852Z,36.27
2019-03-23T13:32:45.392Z,39.80
2019-03-23T13:38:16.092Z,41.73
2019-03-23T13:43:45.807Z,41.37
2019-03-23T13:49:15.364Z,41.57
2019-03-23T13:54:45.388Z,42.30
2019-03-23T14:00:17.501Z,36.80
2019-03-23T14:05:46.932Z,35.60
2019-03-23T14:11:16.563Z,44.00
2019-03-23T14:16:46.249Z,38.00
2019-03-23T14:22:16.139Z,38.87
2019-03-23T14:27:59.579Z,36.90
2019-03-23T14:33:29.046Z,40.80
2019-03-23T14:38:58.480Z,39.40
2019-03-23T14:44:35.344Z,41.37
2019-03-23T14:50:07.257Z,41.47
2019-03-23T14:55:37.563Z,36.07
2019-03-23T15:01:08.711Z,36.43
2019-03-23T15:06:38.477Z,32.87
2019-03-23T15:12:14.920Z,37.87
2019-03-23T15:17:48.422Z,39.37
2019-03-23T15:23:10.655Z,42.47
2019-03-23T15:28:40.415Z,42.17
2019-03-23T15:34:13.854Z,39.47
2019-03-23T15:39:43.414Z,45.60
2019-03-23T15:45:12.998Z,45.10
2019-03-23T15:50:42.509Z,46.80
2019-03-23T15:56:12.065Z,47.23
2019-03-23T16:01:42.545Z,44.33
2019-03-23T16:07:11.934Z,52.17
2019-03-23T16:12:42.397Z,48.37
2019-03-23T16:18:11.840Z,47.37
2019-03-23T16:23:41.295Z,45.73
2019-03-23T16:29:10.686Z,46.07
2019-03-23T16:34:40.038Z,52.87
2019-03-23T16:40:11.085Z,49.90
2019-03-23T16:45:42.172Z,49.90
2019-03-23T16:51:11.646Z,52.00
2019-03-23T16:56:41.117Z,53.90
2019-03-23T17:02:11.408Z,53.17
2019-03-23T17:07:41.348Z,54.40
2019-03-23T17:13:10.765Z,49.70
2019-03-23T17:18:40.205Z,56.23
2019-03-23T17:24:10.869Z,61.00
2019-03-23T17:29:40.510Z,54.13
2019-03-23T17:35:10.059Z,58.97
2019-03-23T17:40:44.384Z,53.87
2019-03-23T17:46:13.735Z,61.47
2019-03-23T17:51:43.250Z,60.57
2019-03-23T17:57:13.120Z,58.30
2019-03-23T18:02:42.397Z,51.53
2019-03-23T18:08:11.818Z,55.90
2019-03-23T18:13:41.435Z,52.37
2019-03-23T18:19:10.779Z,58.03
2019-03-23T18:24:40.339Z,57.10
2019-03-23T18:30:41.893Z,54.95
2019-03-23T18:36:14.405Z,54.13
2019-03-23T18:41:43.867Z,54.07
2019-03-23T18:47:13.282Z,64.27
2019-03-23T18:52:43.045Z,56.40
2019-03-23T18:58:12.862Z,58.03
2019-03-23T19:03:42.472Z,66.57
2019-03-23T19:09:11.947Z,62.53
2019-03-23T19:14:42.370Z,72.80
2019-03-23T19:20:11.787Z,77.90
2019-03-23T19:25:41.162Z,65.97
2019-03-23T19:31:10.582Z,64.17
2019-03-23T19:36:40.009Z,68.20
2019-03-23T19:42:09.574Z,75.00
2019-03-23T19:47:39.054Z,62.90
2019-03-23T19:53:08.532Z,76.83
2019-03-23T19:58:38.002Z,79.10
2019-03-23T20:04:07.602Z,56.30
2019-03-23T20:09:37.067Z,60.03
2019-03-23T20:15:09.405Z,68.80
2019-03-23T20:20:38.912Z,71.70
2019-03-23T20:26:08.409Z,70.60
2019-03-23T20:31:37.884Z,71.83
2019-03-23T20:37:08.482Z,68.00
2019-03-23T20:42:38.404Z,72.60
2019-03-23T20:48:08.174Z,69.33
2019-03-23T20:53:38.073Z,63.50
2019-03-23T20:59:07.842Z,55.87
2019-03-23T21:04:37.851Z,50.37
2019-03-23T21:10:07.658Z,55.83
2019-03-23T21:15:37.114Z,57.10
2019-03-23T21:21:07.014Z,53.47
2019-03-23T21:26:36.475Z,50.50
2019-03-23T21:32:06.070Z,52.10
2019-03-23T21:37:35.641Z,56.37
2019-03-23T21:43:05.341Z,55.57
2019-03-23T21:48:35.050Z,41.47
2019-03-23T21:54:07.847Z,45.03
2019-03-23T21:59:38.012Z,48.97
2019-03-23T22:05:09.230Z,53.23
2019-03-23T22:10:38.880Z,48.93
2019-03-23T22:16:08.407Z,57.43
2019-03-23T22:21:37.872Z,44.07
2019-03-23T22:27:08.312Z,43.23
2019-03-23T22:32:37.697Z,43.70
2019-03-23T22:38:07.284Z,38.97
2019-03-23T22:43:36.888Z,36.70
2019-03-23T22:49:06.356Z,43.20
2019-03-23T22:54:35.950Z,138.33
2019-03-23T23:00:17.142Z,41.93
2019-03-23T23:05:46.618Z,40.63
2019-03-23T23:11:16.039Z,42.60
2019-03-23T23:16:45.413Z,44.33
2019-03-23T23:22:15.760Z,35.57
2019-03-23T23:27:45.185Z,37.53
2019-03-23T23:33:14.507Z,42.00
2019-03-23T23:38:43.905Z,45.17
2019-03-23T23:44:13.280Z,43.27
2019-03-23T23:49:42.816Z,41.23
2019-03-23T23:55:12.286Z,39.63
